Time;durP1;ratioP1;P1;durP2;ratioP2;P2;SDS_P1;SDS_P2;PMS_P1;PMS_P2;Temp;Humidity;BMP_temperature;BMP_pressure;BME280_temperature;BME280_humidity;BME280_pressure;Samples;Min_cycle;Max_cycle;Signal;HPM_P1;HPM_P2
2022/04/19 00:00:56;;;;;;;3.10;2.80;;;4.80;97.90;;;4.60;68.08;94490.09;5049722;28;20504;-56
2022/04/19 00:03:23;;;;;;;3.27;3.07;;;4.80;97.50;;;4.59;68.51;94483.22;5057805;28;20513;-55
2022/04/19 00:05:50;;;;;;;2.90;2.70;;;4.80;97.50;;;4.60;68.63;94484.03;5047801;28;20487;-54
2022/04/19 00:08:17;;;;;;;2.67;2.50;;;4.80;97.70;;;4.62;68.33;94476.97;5051700;28;20962;-56
2022/04/19 00:10:45;;;;;;;2.37;2.27;;;4.80;97.40;;;4.62;68.26;94471.75;5050769;28;20470;-55
2022/04/19 00:13:13;;;;;;;2.00;1.90;;;4.80;97.50;;;4.63;68.51;94463.81;5058288;28;20456;-54
2022/04/19 00:15:40;;;;;;;2.30;2.20;;;4.80;97.60;;;4.64;68.72;94467.25;5057745;28;20876;-57
2022/04/19 00:18:09;;;;;;;3.30;1.87;;;4.90;97.90;;;4.65;68.88;94461.09;5057540;28;20450;-54
2022/04/19 00:20:38;;;;;;;2.40;2.30;;;4.90;98.00;;;4.67;68.77;94459.22;5056943;28;20479;-56
2022/04/19 00:23:12;;;;;;;2.20;2.10;;;4.90;97.70;;;4.68;68.47;94450.47;5054405;28;20481;-55
2022/04/19 00:25:40;;;;;;;2.67;2.50;;;4.90;97.60;;;4.68;68.57;94453.06;5056951;28;20642;-56
2022/04/19 00:28:08;;;;;;;2.43;2.23;;;4.90;97.70;;;4.66;68.78;94455.78;5055788;28;20924;-53
2022/04/19 00:30:35;;;;;;;3.27;3.07;;;4.90;97.60;;;4.65;68.64;94454.13;5051924;28;20627;-55
2022/04/19 00:33:02;;;;;;;3.60;3.40;;;4.90;97.70;;;4.65;68.60;94445.47;5055614;28;20447;-55
2022/04/19 00:35:31;;;;;;;3.10;2.90;;;4.90;97.50;;;4.64;68.31;94449.84;5056177;28;20927;-56
2022/04/19 00:37:59;;;;;;;4.10;3.67;;;4.90;97.60;;;4.65;68.89;94456.72;5049876;28;21039;-54
2022/04/19 00:40:27;;;;;;;3.50;3.30;;;4.90;97.60;;;4.66;68.54;94453.19;5052750;28;20809;-57
2022/04/19 00:42:54;;;;;;;4.17;3.87;;;4.90;97.50;;;4.69;68.51;94448.69;5047805;28;20463;-56
2022/04/19 00:45:23;;;;;;;4.13;3.87;;;4.90;97.70;;;4.70;68.56;94443.34;5050519;28;20507;-55
2022/04/19 00:47:50;;;;;;;3.73;3.43;;;4.90;97.80;;;4.71;68.67;94446.78;5055028;28;20495;-56
2022/04/19 00:50:17;;;;;;;3.60;3.40;;;4.90;98.00;;;4.73;68.58;94450.94;5054985;28;20454;-55
2022/04/19 00:52:46;;;;;;;4.10;3.57;;;4.90;97.80;;;4.72;68.58;94440.63;5052583;28;20451;-58
2022/04/19 00:55:13;;;;;;;4.03;3.73;;;4.90;97.60;;;4.72;68.62;94443.22;5055435;28;20506;-56
2022/04/19 00:57:42;;;;;;;4.97;3.47;;;4.90;97.60;;;4.71;68.56;94442.41;5061278;28;20448;-59
2022/04/19 01:00:12;;;;;;;3.43;3.20;;;4.90;97.60;;;4.70;68.56;94440.75;5060090;28;20859;-56
2022/04/19 01:02:39;;;;;;;2.93;2.73;;;4.90;97.60;;;4.69;68.68;94439.06;5060113;28;20538;-56
2022/04/19 01:05:08;;;;;;;2.50;2.40;;;4.90;97.60;;;4.69;68.56;94433.03;5058506;28;20610;-57
2022/04/19 01:07:36;;;;;;;2.83;2.73;;;4.90;97.50;;;4.67;68.44;94428.78;5057968;28;20979;-56
2022/04/19 01:10:06;;;;;;;3.57;3.30;;;4.90;97.60;;;4.66;68.68;94432.34;5057198;28;20498;-57
2022/04/19 01:15:18;;;;;;;3.50;3.30;;;4.90;97.60;;;4.63;68.47;94426.50;5055918;28;21126;-56
2022/04/19 01:17:45;;;;;;;3.73;3.53;;;4.90;97.50;;;4.60;68.48;94438.00;5067072;28;20450;-56
2022/04/19 01:20:13;;;;;;;2.83;2.70;;;4.80;97.50;;;4.60;68.64;94435.41;5053859;28;20852;-56
2022/04/19 01:22:43;;;;;;;2.83;2.67;;;4.80;97.60;;;4.58;68.87;94431.25;5050871;28;20494;-56
2022/04/19 01:25:11;;;;;;;3.20;3.00;;;4.80;97.90;;;4.56;68.58;94438.34;5054530;28;20502;-55
2022/04/19 01:27:39;;;;;;;2.83;2.73;;;4.80;97.80;;;4.55;68.86;94432.28;5060476;28;20451;-57
2022/04/19 01:30:08;;;;;;;2.90;2.77;;;4.80;97.90;;;4.52;69.01;94427.31;5057542;28;20511;-55
2022/04/19 01:32:36;;;;;;;3.20;3.00;;;4.70;97.90;;;4.53;69.05;94428.97;5054432;28;20947;-55
2022/04/19 01:35:11;;;;;;;2.90;2.80;;;4.70;97.90;;;4.54;68.87;94428.03;5058281;28;20468;-56
2022/04/19 01:37:43;;;;;;;2.93;2.83;;;4.70;97.80;;;4.55;68.72;94429.69;5059850;28;20443;-53
2022/04/19 01:40:19;;;;;;;3.67;3.47;;;4.80;97.90;;;4.56;69.01;94431.34;5058068;28;20467;-56
2022/04/19 01:42:49;;;;;;;4.03;3.77;;;4.80;97.90;;;4.55;68.75;94424.47;5059307;28;20458;-55
2022/04/19 01:45:20;;;;;;;3.00;2.80;;;4.80;97.90;;;4.56;68.78;94423.53;5056473;28;20509;-56
2022/04/19 01:47:51;;;;;;;3.07;2.97;;;4.80;97.90;;;4.57;69.20;94417.41;5058512;28;20505;-56
2022/04/19 01:50:20;;;;;;;2.50;2.40;;;4.80;97.90;;;4.57;68.70;94432.19;5053561;28;20473;-57
2022/04/19 01:52:51;;;;;;;2.70;2.60;;;4.80;97.90;;;4.57;69.06;94426.97;5062537;28;20464;-57
2022/04/19 01:55:20;;;;;;;2.80;2.60;;;4.80;97.90;;;4.56;68.88;94431.34;5059286;28;20498;-54
2022/04/19 01:57:49;;;;;;;3.30;3.00;;;4.80;98.00;;;4.55;68.99;94426.25;5052701;28;20531;-56
2022/04/19 02:00:17;;;;;;;3.90;3.60;;;4.80;97.90;;;4.55;68.49;94429.69;5048248;28;20573;-58
2022/04/19 02:02:44;;;;;;;3.60;3.30;;;4.80;97.80;;;4.55;68.86;94432.28;5050196;28;20569;-55
2022/04/19 02:05:12;;;;;;;3.57;3.27;;;4.80;97.90;;;4.56;69.02;94420.13;5059169;28;20501;-56
2022/04/19 02:07:39;;;;;;;4.13;3.83;;;4.80;97.90;;;4.55;68.62;94428.88;5049142;28;20455;-57
2022/04/19 02:10:10;;;;;;;3.93;3.63;;;4.80;97.80;;;4.54;68.64;94422.84;5054182;28;20464;-55
2022/04/19 02:12:38;;;;;;;3.93;3.70;;;4.70;97.90;;;4.54;69.20;94424.59;5055041;28;20832;-56
2022/04/19 02:15:07;;;;;;;3.40;3.20;;;4.80;97.90;;;4.52;69.02;94429.91;5055797;28;20581;-56
2022/04/19 02:17:35;;;;;;;4.00;3.70;;;4.80;98.30;;;4.53;69.43;94430.75;5056759;28;20872;-55
2022/04/19 02:20:03;;;;;;;5.70;4.30;;;4.70;97.90;;;4.52;69.30;94431.69;5059057;28;20466;-57
2022/04/19 02:22:31;;;;;;;5.20;4.70;;;4.70;98.00;;;4.51;69.39;94428.28;5057519;28;20943;-57
2022/04/19 02:24:59;;;;;;;4.27;4.00;;;4.70;97.90;;;4.51;69.17;94430.03;5057787;28;20501;-55
2022/04/19 02:27:28;;;;;;;4.03;3.73;;;4.70;97.90;;;4.51;69.11;94428.28;5057250;28;20443;-54
2022/04/19 02:29:55;;;;;;;4.00;3.70;;;4.70;98.00;;;4.53;69.15;94426.38;5054195;28;20571;-56
2022/04/19 02:32:23;;;;;;;4.93;4.50;;;4.70;98.10;;;4.55;69.06;94431.47;5054918;28;20960;-56
2022/04/19 02:34:51;;;;;;;3.83;3.60;;;4.70;97.90;;;4.55;69.10;94431.47;5050776;28;20968;-55
2022/04/19 02:37:18;;;;;;;3.60;3.30;;;4.70;98.00;;;4.54;68.95;94419.38;5050548;28;20808;-55
2022/04/19 02:39:47;;;;;;;4.17;3.87;;;4.70;98.00;;;4.52;69.57;94423.88;5053956;28;20581;-58
2022/04/19 02:42:14;;;;;;;3.80;3.50;;;4.70;98.30;;;4.49;69.13;94428.38;5056572;28;20941;-55
2022/04/19 02:44:43;;;;;;;4.27;4.07;;;4.70;98.00;;;4.49;69.10;94424.94;5053665;28;20861;-55
2022/04/19 02:47:10;;;;;;;4.00;3.77;;;4.70;98.00;;;4.47;69.57;94432.84;5054922;28;20456;-54
2022/04/19 02:49:38;;;;;;;4.33;3.93;;;4.70;98.40;;;4.47;69.00;94432.03;5059085;28;20462;-53
2022/04/19 02:52:06;;;;;;;4.53;4.13;;;4.70;98.00;;;4.47;69.47;94430.25;5053635;28;20456;-55
2022/04/19 02:54:33;;;;;;;4.17;3.57;;;4.70;98.40;;;4.46;69.47;94432.97;5058264;28;20470;-56
2022/04/19 02:57:00;;;;;;;5.70;4.30;;;4.70;98.30;;;4.47;69.12;94439.84;5056482;28;20459;-56
2022/04/19 02:59:28;;;;;;;5.07;4.77;;;4.70;98.30;;;4.47;69.41;94443.28;5057614;28;20861;-55
2022/04/19 03:01:56;;;;;;;4.60;4.23;;;4.70;98.30;;;4.48;69.11;94444.94;5056614;28;20978;-56
2022/04/19 03:04:24;;;;;;;5.07;4.70;;;4.70;98.00;;;4.50;69.47;94447.44;5054639;28;20492;-55
2022/04/19 03:06:51;;;;;;;6.20;5.60;;;4.70;98.30;;;4.52;69.53;94445.53;5053668;28;20456;-55
2022/04/19 03:09:18;;;;;;;5.60;5.20;;;4.70;98.40;;;4.54;69.30;94454.09;5059373;28;20451;-55
2022/04/19 03:11:46;;;;;;;5.80;5.37;;;4.70;98.30;;;4.55;69.22;94444.50;5051650;28;20474;-57
2022/04/19 03:14:13;;;;;;;6.10;5.50;;;4.80;98.30;;;4.56;69.98;94449.59;5050648;28;20970;-56
2022/04/19 03:16:41;;;;;;;5.80;5.30;;;4.80;98.60;;;4.58;69.38;94454.69;5049288;28;20551;-56
2022/04/19 03:19:13;;;;;;;5.60;5.17;;;4.80;98.30;;;4.59;69.57;94446.75;5057562;28;20601;-54
2022/04/19 03:21:41;;;;;;;5.00;4.63;;;4.80;98.40;;;4.61;69.63;94451.84;5060465;28;20486;-57
2022/04/19 03:29:37;;;;;;;5.10;4.80;;;4.90;98.30;;;4.65;69.50;94456.72;5058749;28;20441;-56
2022/04/19 03:32:07;;;;;;;5.60;4.97;;;4.90;98.40;;;4.66;69.42;94465.34;5054979;28;20596;-57
2022/04/19 03:34:37;;;;;;;5.67;5.17;;;4.90;98.30;;;4.66;69.25;94468.81;5066327;28;20447;-57
2022/04/19 03:37:07;;;;;;;5.87;5.37;;;4.90;98.20;;;4.69;69.20;94469.50;5067602;28;20455;-56
2022/04/19 03:39:34;;;;;;;5.63;5.13;;;4.90;98.00;;;4.69;69.93;94469.50;5059031;28;20931;-56
2022/04/19 03:42:01;;;;;;;5.57;5.10;;;4.90;98.40;;;4.67;69.06;94473.06;5054071;28;20470;-57
2022/04/19 03:44:29;;;;;;;6.33;5.80;;;4.90;98.00;;;4.65;68.96;94476.72;5053734;28;20491;-56
2022/04/19 03:47:08;;;;;;;7.13;6.30;;;4.80;97.90;;;4.65;69.24;94477.56;5053477;28;20469;-56
2022/04/19 03:49:37;;;;;;;7.27;6.67;;;4.90;98.20;;;4.67;69.51;94480.03;5053612;28;20455;-55
2022/04/19 03:52:05;;;;;;;7.47;6.77;;;4.90;98.30;;;4.70;69.60;94479.00;5055726;28;21028;-57
2022/04/19 03:54:34;;;;;;;7.80;6.37;;;4.90;98.60;;;4.72;69.45;94477.09;5048214;28;20971;-56
2022/04/19 03:57:03;;;;;;;7.97;6.27;;;4.90;98.40;;;4.75;69.65;94480.31;5048438;28;20586;-56
2022/04/19 03:59:32;;;;;;;5.90;5.40;;;4.90;98.50;;;4.77;69.76;94486.25;5047143;28;20523;-57
2022/04/19 04:01:59;;;;;;;7.87;5.90;;;5.00;98.70;;;4.79;69.59;94489.56;5050243;28;20487;-56
2022/04/19 04:04:30;;;;;;;6.40;5.67;;;5.00;98.50;;;4.81;69.40;94492.88;5051114;28;20548;-57
2022/04/19 04:06:59;;;;;;;8.10;6.70;;;5.00;98.40;;;4.82;69.79;94484.13;5053106;28;20458;-58
2022/04/19 04:09:30;;;;;;;6.40;5.80;;;5.00;98.80;;;4.85;69.69;94483.06;5056706;28;20470;-56
2022/04/19 04:11:57;;;;;;;9.17;7.43;;;5.00;98.70;;;4.91;69.80;94487.81;5054748;28;20479;-53
2022/04/19 04:14:24;;;;;;;10.10;7.70;;;5.10;98.80;;;4.94;69.41;94484.13;5037955;28;20929;-56
2022/04/19 04:16:52;;;;;;;6.43;5.53;;;5.10;98.50;;;4.95;69.09;94489.22;5034530;28;20467;-58
2022/04/19 04:19:19;;;;;;;6.20;5.60;;;5.10;98.20;;;4.96;69.10;94490.91;5038575;28;20543;-57
2022/04/19 04:21:46;;;;;;;7.50;5.47;;;5.20;98.20;;;4.97;69.23;94496.94;5037757;28;20527;-56
2022/04/19 04:24:15;;;;;;;9.93;8.00;;;5.20;98.10;;;5.00;68.96;94502.78;5036609;28;20473;-55
2022/04/19 04:26:42;;;;;;;6.90;6.00;;;5.20;98.10;;;5.02;68.86;94500.88;5035750;28;20487;-56
2022/04/19 04:29:10;;;;;;;8.57;5.80;;;5.20;98.10;;;5.05;68.88;94499.81;5036272;28;21023;-56
2022/04/19 04:31:38;;;;;;;6.90;5.47;;;5.30;98.20;;;5.07;68.69;94505.72;5040482;28;20482;-56
2022/04/19 04:34:05;;;;;;;5.47;4.63;;;5.30;97.90;;;5.08;69.22;94501.34;5044699;28;20479;-53
2022/04/19 04:36:32;;;;;;;6.00;5.37;;;5.30;98.20;;;5.10;68.63;94502.06;5046786;28;20514;-54
2022/04/19 04:39:00;;;;;;;6.60;6.00;;;5.30;97.90;;;5.12;68.40;94500.19;5053521;28;21174;-57
2022/04/19 04:41:28;;;;;;;6.50;5.60;;;5.30;98.00;;;5.17;68.80;94500.66;5054607;28;20524;-57
2022/04/19 04:43:55;;;;;;;7.47;5.40;;;5.30;98.10;;;5.24;68.60;94509.69;5060079;28;20843;-56
2022/04/19 04:51:52;;;;;;;7.57;5.13;;;5.50;97.90;;;5.44;68.57;94517.75;5059415;28;20492;-56
2022/04/19 04:54:20;;;;;;;4.83;4.43;;;5.60;97.80;;;5.48;68.50;94516.56;5057917;28;20463;-56
2022/04/19 04:56:48;;;;;;;5.33;4.83;;;5.60;97.70;;;5.52;68.23;94513.59;5054855;28;20869;-57
2022/04/19 04:59:15;;;;;;;5.03;4.47;;;5.70;97.60;;;5.57;67.84;94518.47;5053145;28;20812;-56
2022/04/19 05:01:43;;;;;;;5.20;4.70;;;5.70;97.60;;;5.62;67.90;94520.72;5051959;28;20472;-55
2022/04/19 05:04:10;;;;;;;9.33;5.27;;;5.80;97.40;;;5.63;68.12;94525.00;5055146;28;20981;-57
2022/04/19 05:06:37;;;;;;;5.93;4.87;;;5.80;97.20;;;5.64;67.63;94516.22;5055797;28;20484;-57
2022/04/19 05:09:05;;;;;;;5.20;4.70;;;5.90;97.10;;;5.69;67.50;94525.34;5051282;28;20786;-56
2022/04/19 05:11:32;;;;;;;5.90;4.60;;;5.90;97.10;;;5.70;67.36;94529.63;5050254;28;21056;-56
2022/04/19 05:14:01;;;;;;;4.40;4.00;;;5.90;97.20;;;5.71;67.36;94520.84;5050858;28;20484;-56
2022/04/19 05:16:28;;;;;;;4.83;4.37;;;5.90;97.00;;;5.71;67.07;94526.06;5049280;28;20471;-56
2022/04/19 05:18:56;;;;;;;5.63;5.10;;;5.90;96.90;;;5.72;66.93;94526.91;5047512;28;20824;-55
2022/04/19 05:21:23;;;;;;;5.87;5.37;;;5.90;96.80;;;5.70;67.06;94529.63;5049315;28;20475;-57
2022/04/19 05:23:51;;;;;;;5.60;4.77;;;5.90;96.80;;;5.68;67.12;94528.06;5059986;28;20525;-56
2022/04/19 05:26:18;;;;;;;5.80;4.30;;;5.90;96.70;;;5.65;66.96;94526.53;5055193;28;20491;-57
2022/04/19 05:28:45;;;;;;;4.40;4.10;;;5.80;96.60;;;5.66;67.14;94527.38;5055198;28;20454;-56
2022/04/19 05:31:14;;;;;;;5.27;4.73;;;5.80;96.80;;;5.69;67.28;94530.56;5056015;28;20787;-56
2022/04/19 05:33:41;;;;;;;5.37;3.90;;;5.90;96.90;;;5.71;67.85;94531.28;5054543;28;20498;-57
2022/04/19 05:36:08;;;;;;;3.50;3.30;;;5.90;96.90;;;5.74;67.00;94527.59;5056103;28;20551;-56
2022/04/19 05:38:36;;;;;;;3.00;2.57;;;5.90;96.70;;;5.77;66.61;94531.75;5056269;28;20474;-56
2022/04/19 05:41:03;;;;;;;2.60;2.50;;;5.90;96.60;;;5.79;66.52;94537.69;5054637;28;20494;-56
2022/04/19 05:43:30;;;;;;;3.20;3.00;;;5.90;96.50;;;5.82;66.58;94535.66;5062641;28;20477;-57
2022/04/19 05:45:58;;;;;;;4.03;3.73;;;6.00;96.70;;;5.87;66.94;94546.59;5054354;28;20491;-57
2022/04/19 05:48:27;;;;;;;4.20;3.80;;;6.00;96.60;;;5.92;66.76;94546.22;5055373;28;20460;-57
2022/04/19 05:50:54;;;;;;;4.00;3.70;;;6.10;96.70;;;5.95;66.48;94543.38;5049867;28;20819;-55
2022/04/19 05:53:21;;;;;;;5.97;5.43;;;6.10;96.70;;;6.02;66.68;94541.97;5051009;28;20455;-56
2022/04/19 05:55:49;;;;;;;7.17;6.43;;;6.10;96.50;;;6.06;66.87;94543.41;5053221;28;20497;-57
2022/04/19 05:58:16;;;;;;;10.03;6.63;;;6.20;96.60;;;6.08;66.23;94543.28;5052571;28;20823;-57
2022/04/19 06:00:43;;;;;;;11.00;8.07;;;6.20;96.10;;;6.04;66.62;94547.91;5056586;28;20474;-57
2022/04/19 06:05:57;;;;;;;9.90;8.53;;;6.20;96.60;;;6.05;67.18;94548.75;5058731;28;20492;-57
2022/04/19 06:08:24;;;;;;;23.93;13.47;;;6.20;97.00;;;6.07;67.19;94554.66;5056938;28;20975;-58
2022/04/19 06:10:51;;;;;;;12.37;9.43;;;6.20;96.80;;;6.06;66.74;94553.84;5059964;28;21175;-55
2022/04/19 06:13:19;;;;;;;10.37;8.60;;;6.20;96.60;;;6.10;67.02;94555.28;5057684;28;20470;-55
2022/04/19 06:15:46;;;;;;;7.77;6.97;;;6.20;96.60;;;6.19;67.03;94551.09;5060852;28;20481;-56
2022/04/19 06:18:13;;;;;;;6.47;4.80;;;6.30;96.80;;;6.27;66.47;94550.47;5056353;28;20456;-55
2022/04/19 06:20:41;;;;;;;3.40;3.20;;;6.40;96.50;;;6.35;66.33;94553.34;5058407;28;20509;-58
2022/04/19 06:23:11;;;;;;;3.30;2.80;;;6.40;96.60;;;6.45;66.26;94553.41;5054215;28;20980;-56
2022/04/19 06:25:38;;;;;;;2.57;2.40;;;6.50;96.10;;;6.52;65.71;94551.13;5055358;28;20486;-56
2022/04/19 06:28:06;;;;;;;1.67;1.20;;;6.60;96.10;;;6.54;65.43;94554.47;5053439;28;20448;-57
2022/04/19 06:30:33;;;;;;;1.67;1.57;;;6.60;95.50;;;6.53;65.65;94566.69;5052396;28;20552;-57
2022/04/19 06:33:00;;;;;;;2.23;2.13;;;6.70;95.70;;;6.53;65.65;94563.25;5055091;28;20570;-57
2022/04/19 06:35:28;;;;;;;2.70;2.53;;;6.70;95.50;;;6.54;65.31;94562.31;5055448;28;20467;-57
2022/04/19 06:37:55;;;;;;;2.83;2.63;;;6.70;95.70;;;6.57;65.45;94562.88;5060684;28;20531;-56
2022/04/19 06:40:24;;;;;;;3.73;2.90;;;6.70;95.70;;;6.61;65.83;94560.84;5056825;28;20467;-57
2022/04/19 06:42:51;;;;;;;4.00;3.70;;;6.70;95.70;;;6.64;65.31;94560.59;5061053;28;20966;-56
2022/04/19 06:45:19;;;;;;;4.30;3.97;;;6.80;95.90;;;6.68;64.82;94562.03;5060301;28;20889;-57
2022/04/19 06:47:46;;;;;;;4.00;3.60;;;6.80;95.40;;;6.69;65.34;94565.47;5056031;28;20455;-55
2022/04/19 06:50:13;;;;;;;5.13;4.60;;;6.80;95.40;;;6.68;64.86;94563.78;5056388;28;20468;-55
2022/04/19 06:52:41;;;;;;;4.63;4.20;;;6.80;95.40;;;6.65;64.86;94570.13;5056611;28;20990;-56
2022/04/19 06:55:09;;;;;;;5.30;4.20;;;6.80;95.30;;;6.62;65.39;94571.19;5056820;28;20905;-56
2022/04/19 06:57:39;;;;;;;3.80;3.60;;;6.80;95.30;;;6.65;65.43;94564.88;5058352;28;20452;-55
2022/04/19 07:00:09;;;;;;;3.57;3.37;;;6.80;95.60;;;6.75;65.19;94565.78;5053508;28;20471;-54
2022/04/19 07:02:36;;;;;;;3.40;3.10;;;6.80;95.60;;;6.82;65.13;94571.38;5061700;28;20451;-57
2022/04/19 07:05:03;;;;;;;2.73;2.53;;;6.90;95.40;;;6.90;64.57;94562.91;5057036;28;20491;-56
2022/04/19 07:07:32;;;;;;;2.53;2.43;;;7.00;95.00;;;6.95;64.45;94573.81;5060925;28;20823;-56
2022/04/19 07:09:59;;;;;;;4.03;3.00;;;7.10;95.10;;;7.06;64.23;94576.38;5046857;28;20459;-56
2022/04/19 07:12:27;;;;;;;2.70;2.60;;;7.10;95.20;;;7.22;65.02;94577.72;5056758;28;20475;-56
2022/04/19 07:14:55;;;;;;;2.90;2.70;;;7.30;95.30;;;7.31;64.74;94577.81;5058419;28;20978;-56
2022/04/19 07:17:23;;;;;;;2.30;2.20;;;7.40;95.20;;;7.44;64.52;94580.22;5055043;28;20536;-55
2022/04/19 07:28:05;;;;;;;1.63;1.53;;;7.80;94.10;;;7.89;63.17;94581.72;5057938;28;20443;-56
2022/04/19 07:30:34;;;;;;;1.73;1.63;;;7.90;94.10;;;8.13;62.61;94583.19;5055564;28;20467;-55
2022/04/19 07:33:02;;;;;;;1.53;1.43;;;8.10;94.10;;;8.45;62.42;94583.06;5056715;28;20975;-56
2022/04/19 07:35:29;;;;;;;1.70;1.60;;;8.40;93.90;;;8.94;61.97;94591.03;5057653;28;20468;-57
2022/04/19 07:37:57;;;;;;;3.30;2.20;;;8.80;93.70;;;9.55;61.28;94582.00;5056453;28;20974;-59
2022/04/19 07:40:24;;;;;;;2.00;1.90;;;9.40;93.70;;;10.08;59.63;94585.88;5053094;28;20483;-57
2022/04/19 07:42:52;;;;;;;7.30;2.00;;;9.90;92.30;;;10.44;56.54;94582.59;5052562;28;20468;-56
2022/04/19 07:45:19;;;;;;;1.93;1.83;;;10.30;88.30;;;10.54;56.94;94578.13;5047419;28;20495;-57
2022/04/19 07:47:48;;;;;;;1.43;1.33;;;10.50;88.50;;;10.55;57.16;94579.75;5049999;28;20460;-55
2022/04/19 07:50:15;;;;;;;2.13;2.00;;;10.60;88.80;;;10.53;56.82;94576.44;5049130;28;20472;-56
2022/04/19 07:52:42;;;;;;;1.90;1.80;;;10.60;86.90;;;10.61;56.95;94579.16;5053554;28;20451;-55
2022/04/19 07:55:10;;;;;;;2.03;1.93;;;10.70;87.10;;;11.05;56.91;94587.19;5048295;28;20498;-56
2022/04/19 07:57:38;;;;;;;1.30;1.20;;;11.00;88.40;;;11.33;50.96;94573.13;5054902;28;20517;-57
2022/04/19 08:00:07;;;;;;;1.73;1.30;;;11.20;76.80;;;11.28;53.91;94577.03;5057704;28;20832;-56
2022/04/19 08:02:34;;;;;;;2.07;1.50;;;11.30;81.40;;;11.31;54.31;94578.56;5051513;28;20554;-55
2022/04/19 08:05:03;;;;;;;1.90;1.80;;;11.40;81.80;;;11.41;54.49;94574.00;5055481;28;20475;-57
2022/04/19 08:07:31;;;;;;;1.90;1.80;;;11.50;82.00;;;11.45;53.89;94570.09;5058191;28;20494;-57
2022/04/19 08:10:00;;;;;;;2.20;2.10;;;11.50;80.90;;;11.46;53.86;94570.94;5055314;28;20478;-56
2022/04/19 08:12:28;;;;;;;2.40;2.30;;;11.50;80.60;;;11.54;54.45;94571.00;5057691;28;20459;-56
2022/04/19 08:14:55;;;;;;;3.10;2.90;;;11.60;81.30;;;11.63;53.99;94569.25;5054461;28;21035;-56
2022/04/19 08:17:23;;;;;;;12.80;6.83;;;11.60;80.30;;;11.72;53.44;94564.88;5055897;28;20516;-55
2022/04/19 08:19:50;;;;;;;5.40;3.13;;;11.70;79.70;;;11.81;53.30;94561.31;5056363;28;20554;-56
2022/04/19 08:22:21;;;;;;;2.30;2.13;;;11.80;79.60;;;11.98;53.17;94562.28;5052027;28;20512;-56
2022/04/19 08:24:48;;;;;;;2.20;2.10;;;12.00;78.90;;;12.35;52.55;94558.50;5048175;28;20844;-56
2022/04/19 08:27:16;;;;;;;2.17;2.07;;;12.30;78.00;;;12.83;52.15;94561.47;5059578;28;20589;-57
2022/04/19 08:29:44;;;;;;;2.40;2.20;;;12.80;78.30;;;13.35;49.14;94568.31;5045578;28;20534;-57
2022/04/19 08:32:11;;;;;;;3.00;2.80;;;13.30;73.40;;;13.82;50.08;94557.09;5052886;28;20840;-56
2022/04/19 08:34:39;;;;;;;2.43;2.23;;;13.70;74.00;;;14.38;49.06;94558.94;5047504;28;20513;-56
2022/04/19 08:37:06;;;;;;;3.30;2.13;;;14.20;73.20;;;14.78;41.23;94549.19;5058911;28;20582;-56
2022/04/19 08:39:36;;;;;;;2.53;2.33;;;14.60;57.50;;;14.85;45.74;94552.78;5055365;28;20577;-57
2022/04/19 08:42:05;;;;;;;1.80;1.70;;;14.70;61.30;;;14.70;44.45;94550.88;5054762;28;20516;-57
2022/04/19 08:44:35;;;;;;;2.00;1.90;;;14.70;60.90;;;14.43;45.01;94557.41;5054508;28;21021;-56
2022/04/19 08:47:05;;;;;;;2.63;2.43;;;14.50;60.20;;;14.06;45.69;94556.19;5056767;28;20475;-56
2022/04/19 08:49:34;;;;;;;3.23;2.60;;;14.20;60.50;;;13.67;47.08;94554.28;5055893;28;20868;-57
2022/04/19 08:52:01;;;;;;;4.20;3.30;;;13.80;62.40;;;13.32;47.29;94552.78;5053625;28;20470;-57
2022/04/19 08:57:30;;;;;;;5.53;3.87;;;13.20;63.70;;;13.11;47.34;94548.81;5051398;28;20484;-55
2022/04/19 08:59:59;;;;;;;2.73;2.53;;;13.20;63.20;;;13.45;47.23;94546.03;5055610;28;20558;-56
2022/04/19 09:02:27;;;;;;;6.07;3.47;;;13.40;64.90;;;13.88;45.84;94552.94;5048210;28;20886;-57
2022/04/19 09:04:54;;;;;;;3.07;2.77;;;13.70;63.40;;;14.40;45.98;94549.00;5048909;28;20847;-57
2022/04/19 09:07:22;;;;;;;3.23;2.90;;;14.10;63.80;;;14.94;45.35;94541.16;5058918;28;20510;-56
2022/04/19 09:09:59;;;;;;;3.97;3.13;;;14.60;62.70;;;15.40;44.75;94537.72;5046694;28;20632;-56
2022/04/19 09:12:28;;;;;;;6.43;3.40;;;15.10;61.40;;;15.55;44.15;94540.38;5051192;28;20489;-58
2022/04/19 09:14:56;;;;;;;3.30;3.00;;;15.40;59.70;;;15.46;43.59;94533.50;5047412;28;20480;-57
2022/04/19 09:17:31;;;;;;;3.10;2.80;;;15.40;58.30;;;15.23;42.93;94537.81;5056672;28;20447;-57
2022/04/19 09:20:12;;;;;;;3.17;2.97;;;15.20;56.60;;;14.98;43.09;94545.13;5058985;28;20843;-55
2022/04/19 09:22:40;;;;;;;2.90;2.70;;;15.00;56.80;;;14.76;43.14;94544.06;5055618;28;20481;-57
2022/04/19 09:25:18;;;;;;;6.60;3.17;;;14.80;56.20;;;14.46;43.64;94541.19;5059705;28;20471;-57
2022/04/19 09:27:48;;;;;;;3.80;3.37;;;14.50;56.60;;;14.16;43.64;94542.81;5060415;28;20489;-55
2022/04/19 09:30:19;;;;;;;5.37;3.33;;;14.30;56.30;;;13.92;43.91;94541.84;5058691;28;20502;-56
2022/04/19 09:33:09;;;;;;;6.90;4.47;;;14.00;55.00;;;14.11;44.15;94540.69;5058100;28;20536;-57
2022/04/19 09:35:38;;;;;;;3.13;2.83;;;14.10;57.70;;;14.55;44.20;94536.69;5060699;28;20480;-57
2022/04/19 09:38:07;;;;;;;3.37;3.20;;;14.40;58.40;;;14.93;43.56;94531.56;5056172;28;20532;-54
2022/04/19 09:40:36;;;;;;;3.43;3.17;;;14.70;57.30;;;15.40;41.95;94522.63;5060501;28;20620;-58
2022/04/19 09:43:16;;;;;;;2.90;2.60;;;15.10;56.20;;;15.92;42.43;94523.66;5051894;28;20454;-56
2022/04/19 09:45:56;;;;;;;3.50;3.20;;;15.60;56.30;;;16.40;41.34;94510.03;5050753;28;20478;-57
2022/04/19 09:48:25;;;;;;;3.77;3.30;;;16.10;55.40;;;16.70;40.66;94509.16;5052167;28;20443;-57
2022/04/19 09:50:54;;;;;;;3.70;3.50;;;16.50;53.30;;;16.95;39.69;94517.69;5049554;28;20479;-58
2022/04/19 09:53:23;;;;;;;3.00;2.70;;;16.70;51.30;;;17.15;40.04;94510.72;5061321;28;20458;-57
2022/04/19 09:55:51;;;;;;;3.17;2.83;;;16.90;52.00;;;17.40;39.30;94505.03;5063219;28;20470;-55
2022/04/19 09:58:20;;;;;;;2.77;2.67;;;17.10;51.90;;;17.40;34.16;94505.03;5056275;28;20878;-56
2022/04/19 10:00:49;;;;;;;3.30;3.00;;;17.20;45.10;;;17.03;36.81;94509.56;5061143;28;20479;-56
2022/04/19 10:08:59;;;;;;;9.40;2.00;;;16.70;38.30;;;16.62;34.87;94502.13;5063043;28;20454;-56
2022/04/19 10:11:28;;;;;;;7.00;2.40;;;16.50;42.60;;;16.78;34.88;94504.56;5057920;28;20647;-57
2022/04/19 10:13:57;;;;;;;5.07;2.50;;;16.60;43.60;;;17.00;35.81;94507.31;5057883;28;20853;-57
2022/04/19 10:16:25;;;;;;;2.20;2.00;;;16.80;44.40;;;17.18;30.60;94499.72;5060838;28;20934;-56
2022/04/19 10:18:52;;;;;;;7.77;1.97;;;16.90;38.40;;;17.10;31.50;94494.53;5064578;28;20461;-57
2022/04/19 10:21:21;;;;;;;2.00;1.90;;;17.00;39.30;;;16.97;34.45;94502.38;5063473;28;20951;-57
2022/04/19 10:23:48;;;;;;;1.73;1.63;;;16.90;42.30;;;16.76;33.59;94487.19;5059284;28;20455;-58
2022/04/19 10:26:21;;;;;;;2.37;2.13;;;16.70;40.60;;;16.60;34.80;94489.03;5053604;28;20892;-56
2022/04/19 10:28:50;;;;;;;4.17;2.33;;;16.60;43.30;;;16.75;34.31;94493.53;5052665;28;20451;-58
2022/04/19 10:31:28;;;;;;;7.10;2.20;;;16.60;42.60;;;16.97;29.79;94483.75;5057164;28;20706;-57
2022/04/19 10:33:55;;;;;;;2.33;2.13;;;16.80;37.90;;;17.00;33.77;94484.19;5057041;28;20498;-57
2022/04/19 10:36:24;;;;;;;2.10;2.00;;;16.80;42.30;;;16.81;32.35;94482.97;5056842;28;20554;-57
2022/04/19 10:39:23;;;;;;;2.90;2.70;;;16.70;40.50;;;16.65;32.72;94484.00;5056725;28;20815;-56
2022/04/19 10:41:56;;;;;;;1.77;1.67;;;16.60;40.80;;;16.72;32.98;94480.63;5058656;28;20435;-56
2022/04/19 10:44:29;;;;;;;4.23;1.70;;;16.50;41.40;;;16.94;33.62;94479.63;5059274;28;21132;-57
2022/04/19 10:47:13;;;;;;;2.57;2.37;;;16.70;41.80;;;17.17;32.42;94474.16;5056608;28;20478;-57
2022/04/19 10:50:04;;;;;;;2.70;2.00;;;16.90;41.00;;;17.07;32.20;94481.63;5056346;28;20455;-55
2022/04/19 10:52:53;;;;;;;2.20;1.97;;;16.90;41.00;;;16.87;30.43;94472.59;5043181;28;21084;-57
2022/04/19 10:55:28;;;;;;;1.60;1.50;;;16.80;39.50;;;16.71;32.55;94485.09;5053436;28;20467;-56
2022/04/19 10:58:09;;;;;;;3.17;2.03;;;16.60;40.30;;;16.54;32.87;94483.66;5053132;28;20450;-56
2022/04/19 11:00:56;;;;;;;1.83;1.73;;;16.50;40.80;;;16.33;31.23;94482.59;5059112;28;20470;-56
2022/04/19 11:03:53;;;;;;;2.70;2.20;;;16.20;40.50;;;16.01;32.42;94491.75;5046841;28;20547;-56
2022/04/19 11:06:38;;;;;;;1.70;1.60;;;16.00;40.10;;;15.69;32.06;94478.63;5050153;28;20483;-55
2022/04/19 11:09:23;;;;;;;3.63;2.10;;;15.70;39.60;;;15.49;33.29;94480.13;5061030;28;20525;-56